Time;durP1;ratioP1;P1;durP2;ratioP2;P2;SDS_P1;SDS_P2;PMS_P1;PMS_P2;Temp;Humidity;BMP_temperature;BMP_pressure;BME280_temperature;BME280_humidity;BME280_pressure;Samples;Min_cycle;Max_cycle;Signal;HPM_P1;HPM_P2
2023/01/14 00:01:47;;;;;;;13.13;11.02;;;;;;;19.03;44.07;101546.25;5053149;28;20044;-46
2023/01/14 00:04:14;;;;;;;13.60;10.85;;;;;;;19.02;43.90;101554.44;5053159;28;20041;-47
2023/01/14 00:06:41;;;;;;;12.45;11.15;;;;;;;19.01;43.87;101542.00;5053501;28;20390;-48
2023/01/14 00:09:13;;;;;;;14.23;11.40;;;;;;;19.00;43.61;101541.13;5053539;28;20060;-51
2023/01/14 00:11:46;;;;;;;12.75;10.77;;;;;;;19.00;43.69;101538.44;5052104;28;20064;-54
2023/01/14 00:14:15;;;;;;;;;;;;;;;19.00;43.71;101556.38;5053985;28;20045;-53
2023/01/14 00:16:44;;;;;;;12.02;10.80;;;;;;;18.98;43.64;101564.53;5052997;28;19921;-51
2023/01/14 00:19:11;;;;;;;12.27;10.57;;;;;;;18.99;43.83;101581.47;5052960;28;20052;-51
2023/01/14 00:21:40;;;;;;;13.15;10.27;;;;;;;18.98;43.71;101577.94;5032000;28;20046;-51
2023/01/14 00:24:08;;;;;;;11.65;10.30;;;;;;;18.97;43.54;101575.38;5033095;28;20068;-52
2023/01/14 00:26:35;;;;;;;13.65;11.00;;;;;;;18.96;43.63;101569.16;5033166;28;20064;-53
2023/01/14 00:29:03;;;;;;;10.65;9.55;;;;;;;18.96;43.74;101562.94;5033492;28;20049;-47
2023/01/14 00:31:30;;;;;;;16.25;10.57;;;;;;;18.95;43.83;101559.38;5033053;28;20054;-49
2023/01/14 00:33:59;;;;;;;11.60;10.20;;;;;;;18.95;43.60;101569.25;5032365;28;20057;-48
2023/01/14 00:36:27;;;;;;;14.35;10.57;;;;;;;18.95;43.76;101580.84;5033481;28;20056;-48
2023/01/14 00:38:55;;;;;;;15.07;10.18;;;;;;;18.94;43.77;101583.66;5037358;28;20054;-50
2023/01/14 00:41:24;;;;;;;10.95;9.45;;;;;;;18.94;43.82;101589.88;5037372;28;20052;-50
2023/01/14 00:43:55;;;;;;;12.52;10.32;;;;;;;18.94;43.82;101599.75;5035812;28;20049;-50
2023/01/14 00:46:24;;;;;;;13.10;10.48;;;;;;;18.93;43.51;101592.66;5035928;28;20053;-51
2023/01/14 00:48:52;;;;;;;14.45;11.02;;;;;;;18.93;43.35;101584.63;5037293;28;20045;-51
2023/01/14 00:51:19;;;;;;;11.80;10.13;;;;;;;18.93;43.55;101589.97;5036706;28;20068;-50
2023/01/14 00:53:47;;;;;;;14.68;10.77;;;;;;;18.91;43.43;101591.91;5035530;28;20050;-50
2023/01/14 00:56:20;;;;;;;12.00;10.75;;;;;;;18.91;43.42;101592.75;5036696;28;20056;-50
2023/01/14 00:58:47;;;;;;;12.75;11.05;;;;;;;18.90;43.50;101588.38;5036880;28;20053;-48
2023/01/14 01:01:17;;;;;;;13.20;10.38;;;;;;;18.89;43.40;101589.34;5045008;28;20052;-47
2023/01/14 01:03:51;;;;;;;12.38;9.98;;;;;;;18.89;43.45;101578.63;5056282;28;20048;-48
2023/01/14 01:06:21;;;;;;;13.48;10.55;;;;;;;18.88;43.52;101573.34;5057019;28;20056;-48
2023/01/14 01:08:49;;;;;;;14.68;10.52;;;;;;;18.89;43.61;101572.41;5056597;28;20049;-49
2023/01/14 01:11:17;;;;;;;14.30;11.18;;;;;;;18.87;43.26;101568.94;5056370;28;20375;-47
2023/01/14 01:13:44;;;;;;;10.85;9.70;;;;;;;18.88;43.69;101581.38;5055678;28;20072;-47
2023/01/14 01:16:15;;;;;;;15.48;10.43;;;;;;;18.87;43.45;101579.69;5054777;28;20053;-48
2023/01/14 01:18:43;;;;;;;11.57;10.15;;;;;;;18.87;43.61;101590.41;5056528;28;20040;-48
2023/01/14 01:21:14;;;;;;;11.38;9.20;;;;;;;18.87;43.57;101583.22;5048983;28;20042;-47
2023/01/14 01:23:43;;;;;;;12.10;9.95;;;;;;;18.87;43.58;101585.03;5035271;28;20045;-47
2023/01/14 01:26:21;;;;;;;12.75;9.98;;;;;;;18.87;43.47;101595.78;5036234;28;20041;-47
2023/01/14 01:28:51;;;;;;;12.63;9.93;;;;;;;18.86;43.51;101589.56;5036779;28;20375;-50
2023/01/14 01:31:21;;;;;;;11.82;9.45;;;;;;;18.86;43.56;101588.72;5036053;28;20050;-47
2023/01/14 01:33:49;;;;;;;13.27;9.88;;;;;;;18.86;43.61;101584.19;5035860;28;20415;-48
2023/01/14 01:36:20;;;;;;;11.68;9.27;;;;;;;18.86;43.58;101589.56;5034661;28;20069;-48
2023/01/14 01:38:48;;;;;;;11.82;9.30;;;;;;;18.85;43.71;101582.50;5036311;28;20068;-52
2023/01/14 01:41:28;;;;;;;11.18;8.93;;;;;;;18.86;43.68;101588.72;5035474;28;20042;-51
2023/01/14 01:44:10;;;;;;;12.00;9.32;;;;;;;18.86;43.80;101588.72;5035662;28;20053;-51
2023/01/14 01:46:39;;;;;;;11.07;9.18;;;;;;;18.86;43.80;101594.06;5035272;28;20050;-52
2023/01/14 01:49:24;;;;;;;11.02;9.45;;;;;;;18.85;43.82;101584.31;5035894;28;20049;-51
2023/01/14 01:51:57;;;;;;;10.70;7.93;;;;;;;18.85;43.69;101581.63;5035620;28;20396;-52
2023/01/14 01:54:27;;;;;;;;;;;;;;;18.84;43.77;101578.09;5035079;28;20483;-51
2023/01/14 01:56:55;;;;;;;10.68;8.55;;;;;;;18.84;43.77;101583.47;5035873;28;19925;-50
2023/01/14 01:59:27;;;;;;;10.63;9.18;;;;;;;18.85;43.57;101571.75;5034711;28;20053;-49
2023/01/14 02:01:55;;;;;;;12.02;9.38;;;;;;;18.84;43.67;101569.16;5049229;28;20045;-46
2023/01/14 02:04:23;;;;;;;12.90;8.18;;;;;;;18.85;43.75;101568.22;5054400;28;20053;-48
2023/01/14 02:06:50;;;;;;;10.55;8.95;;;;;;;18.83;43.60;101560.25;5055048;28;20050;-48
2023/01/14 02:09:18;;;;;;;10.55;8.50;;;;;;;18.83;43.71;101562.94;5053841;28;20387;-54
2023/01/14 02:12:01;;;;;;;9.50;8.45;;;;;;;18.83;43.64;101568.31;5055546;28;20056;-52
2023/01/14 02:14:34;;;;;;;11.27;8.65;;;;;;;18.82;43.63;101568.44;5055624;28;20060;-53
2023/01/14 02:17:32;;;;;;;11.80;9.32;;;;;;;18.83;43.83;101575.50;5055099;28;20045;-52
2023/01/14 02:20:08;;;;;;;11.77;9.15;;;;;;;18.82;43.83;101571.97;5054145;28;20049;-50
2023/01/14 02:22:47;;;;;;;10.20;8.98;;;;;;;18.81;43.88;101578.31;5045987;28;20451;-51
2023/01/14 02:25:46;;;;;;;11.13;8.50;;;;;;;18.83;43.78;101578.19;5052080;28;20052;-53
2023/01/14 02:28:27;;;;;;;10.45;8.63;;;;;;;18.82;43.68;101573.81;5044086;28;20057;-47
2023/01/14 02:31:22;;;;;;;8.90;7.63;;;;;;;18.80;43.78;101568.56;5053709;28;20045;-48
2023/01/14 02:34:01;;;;;;;11.05;8.70;;;;;;;18.81;43.79;101569.41;5055201;28;20045;-49
2023/01/14 02:36:47;;;;;;;10.60;8.52;;;;;;;18.81;43.61;101581.00;5053508;28;20044;-49
2023/01/14 02:39:33;;;;;;;9.38;8.15;;;;;;;18.81;43.90;101593.56;5054018;28;20406;-54
2023/01/14 02:45:08;;;;;;;10.80;8.30;;;;;;;18.80;43.72;101590.00;5053422;28;20053;-51
2023/01/14 02:47:37;;;;;;;9.70;7.55;;;;;;;18.81;43.81;101577.47;5053789;28;20135;-48
2023/01/14 02:50:12;;;;;;;10.30;8.57;;;;;;;18.80;43.73;101573.03;5053452;28;20078;-49
2023/01/14 02:52:39;;;;;;;9.35;7.72;;;;;;;18.80;43.79;101573.91;5037330;28;20059;-52
2023/01/14 02:55:33;;;;;;;9.50;7.80;;;;;;;18.80;43.75;101589.13;5054318;28;20048;-47
2023/01/14 02:58:12;;;;;;;9.23;8.23;;;;;;;18.79;43.79;101593.63;5053395;28;20049;-47
2023/01/14 03:00:42;;;;;;;10.75;8.57;;;;;;;18.79;43.66;101593.63;5054125;28;20399;-50
2023/01/14 03:03:41;;;;;;;9.32;7.90;;;;;;;18.79;43.76;101580.22;5053286;28;20045;-47
2023/01/14 03:06:29;;;;;;;8.93;7.28;;;;;;;18.80;43.86;101586.44;5054242;28;20527;-47
2023/01/14 03:09:09;;;;;;;9.27;7.40;;;;;;;18.78;43.70;101584.75;5053065;28;20049;-54
2023/01/14 03:11:43;;;;;;;10.75;7.93;;;;;;;18.78;43.66;101598.16;5054486;28;20049;-51
2023/01/14 03:14:21;;;;;;;10.43;7.78;;;;;;;18.79;43.74;101612.41;5052941;28;20045;-51
2023/01/14 03:16:58;;;;;;;10.23;7.35;;;;;;;18.78;43.62;101610.72;5052932;28;20049;-53
2023/01/14 03:19:33;;;;;;;8.50;7.60;;;;;;;18.80;43.90;101615.97;5054396;28;20041;-52
2023/01/14 03:22:04;;;;;;;9.52;7.93;;;;;;;18.80;43.77;101610.59;5052269;28;20056;-51
2023/01/14 03:24:40;;;;;;;11.23;7.60;;;;;;;18.80;43.99;101608.78;5034313;28;20048;-52
2023/01/14 03:27:23;;;;;;;8.30;7.18;;;;;;;18.78;43.78;101602.66;5033327;28;20045;-50
2023/01/14 03:29:55;;;;;;;10.30;8.27;;;;;;;18.78;43.83;101608.88;5017409;28;20061;-51
2023/01/14 03:32:27;;;;;;;9.43;7.55;;;;;;;18.78;43.89;101602.66;5033505;28;20387;-52
2023/01/14 03:35:33;;;;;;;8.25;7.30;;;;;;;18.78;43.90;101613.41;5032422;28;20403;-52
2023/01/14 03:38:06;;;;;;;8.40;7.10;;;;;;;18.76;43.76;101624.25;5022340;28;20056;-49
2023/01/14 03:40:37;;;;;;;9.40;7.97;;;;;;;18.77;43.87;101627.78;5033937;28;20498;-47
2023/01/14 03:43:23;;;;;;;8.52;7.53;;;;;;;18.76;43.87;101626.94;5033305;28;20057;-50
2023/01/14 03:45:52;;;;;;;8.75;6.80;;;;;;;18.76;43.96;101623.38;5033361;28;20046;-48
2023/01/14 03:48:19;;;;;;;8.70;6.95;;;;;;;18.75;44.06;101614.47;5033285;28;20046;-53
2023/01/14 03:50:53;;;;;;;7.53;6.70;;;;;;;18.76;44.10;101626.06;5033648;28;20064;-52
2023/01/14 03:53:28;;;;;;;8.57;7.40;;;;;;;18.75;44.16;101625.19;5038904;28;20116;-50
2023/01/14 03:56:45;;;;;;;8.23;7.10;;;;;;;18.74;44.25;101623.47;5053056;28;20052;-51
2023/01/14 03:59:20;;;;;;;9.95;7.65;;;;;;;18.75;44.32;101619.81;5044971;28;20063;-51
2023/01/14 04:01:52;;;;;;;7.72;6.82;;;;;;;18.75;44.19;101625.19;5053292;28;20049;-51
2023/01/14 04:04:23;;;;;;;8.77;7.00;;;;;;;18.75;44.31;101629.69;5053309;28;20052;-54
2023/01/14 04:06:51;;;;;;;8.25;6.97;;;;;;;18.74;44.24;101631.53;5053298;28;20108;-51
2023/01/14 04:09:18;;;;;;;9.65;6.50;;;;;;;18.74;44.37;101623.47;5053643;28;20049;-50
2023/01/14 04:11:46;;;;;;;8.25;6.28;;;;;;;18.74;44.44;101615.44;5052206;28;20486;-51
2023/01/14 04:16:59;;;;;;;8.25;7.28;;;;;;;18.73;44.34;101619.09;5053418;28;20410;-54
2023/01/14 04:19:26;;;;;;;8.18;6.85;;;;;;;18.75;44.35;101624.34;5053204;28;20052;-48
2023/01/14 04:21:54;;;;;;;8.80;6.70;;;;;;;18.74;44.56;101631.53;5053068;28;20045;-49
2023/01/14 04:24:21;;;;;;;7.70;6.40;;;;;;;18.74;44.66;101641.41;5046658;28;20054;-52
2023/01/14 04:26:48;;;;;;;8.38;6.25;;;;;;;18.74;44.44;101642.25;5032469;28;20037;-51
2023/01/14 04:29:16;;;;;;;10.30;6.80;;;;;;;18.74;44.55;101650.31;5032645;28;20052;-49
2023/01/14 04:31:43;;;;;;;11.05;6.88;;;;;;;18.74;44.60;101660.19;5032778;28;20056;-48
2023/01/14 04:34:10;;;;;;;8.00;6.95;;;;;;;18.74;44.55;101655.66;5032731;28;20491;-49
2023/01/14 04:36:37;;;;;;;6.85;6.15;;;;;;;18.74;44.43;101661.03;5032634;28;20041;-48
2023/01/14 04:39:05;;;;;;;9.13;6.93;;;;;;;18.74;44.57;101652.13;5033694;28;20049;-51
2023/01/14 04:44:18;;;;;;;7.93;5.85;;;;;;;18.75;44.64;101652.00;5032702;28;20045;-49
2023/01/14 04:46:45;;;;;;;7.70;6.25;;;;;;;18.73;44.47;101656.63;5032048;28;20045;-49
2023/01/14 04:49:12;;;;;;;7.53;6.00;;;;;;;18.74;44.37;101655.66;5033018;28;20056;-52
2023/01/14 04:51:40;;;;;;;9.75;6.60;;;;;;;18.73;44.40;101659.31;5032787;28;20399;-52
2023/01/14 04:54:07;;;;;;;8.05;6.90;;;;;;;18.73;44.40;101651.28;5033133;28;20048;-52
2023/01/14 04:56:34;;;;;;;9.35;7.22;;;;;;;18.72;44.56;101646.03;5032998;28;20045;-52
2023/01/14 04:59:03;;;;;;;6.82;6.13;;;;;;;18.73;44.56;101653.97;5032914;28;20045;-49
2023/01/14 05:01:30;;;;;;;8.50;6.60;;;;;;;18.73;44.46;101661.16;5043179;28;20049;-48
2023/01/14 05:03:58;;;;;;;8.18;5.53;;;;;;;18.71;44.23;101655.88;5053106;28;20057;-50
2023/01/14 05:06:27;;;;;;;7.53;6.40;;;;;;;18.71;44.50;101663.06;5052023;28;20071;-48
2023/01/14 05:08:55;;;;;;;6.75;5.68;;;;;;;18.71;44.47;101681.84;5051847;28;20052;-51
2023/01/14 05:11:22;;;;;;;12.82;6.53;;;;;;;18.70;44.49;101686.34;5052418;28;20045;-51
2023/01/14 05:13:50;;;;;;;6.95;5.75;;;;;;;18.70;44.60;101697.09;5052481;28;20378;-52
2023/01/14 05:16:17;;;;;;;8.23;6.55;;;;;;;18.69;44.61;101689.13;5052726;28;20497;-52
2023/01/14 05:18:44;;;;;;;7.88;5.88;;;;;;;18.70;44.60;101690.88;5052632;28;20116;-51
2023/01/14 05:21:12;;;;;;;7.80;6.45;;;;;;;18.69;44.45;101689.97;5052501;28;20048;-51
2023/01/14 05:23:39;;;;;;;8.70;6.20;;;;;;;18.70;44.63;101690.88;5055565;28;20051;-52
2023/01/14 05:26:06;;;;;;;9.38;5.93;;;;;;;18.70;44.80;101696.22;5040596;28;20034;-51
2023/01/14 05:28:34;;;;;;;9.07;5.68;;;;;;;18.70;44.70;101697.09;5036049;28;20053;-47
2023/01/14 05:31:01;;;;;;;9.05;5.55;;;;;;;18.70;44.73;101697.09;5035646;28;20053;-48
2023/01/14 05:33:28;;;;;;;7.25;5.95;;;;;;;18.70;44.71;101698.91;5036007;28;20053;-48
2023/01/14 05:35:57;;;;;;;6.75;5.43;;;;;;;18.70;44.59;101699.75;5036254;28;20045;-50
2023/01/14 05:38:25;;;;;;;8.50;6.15;;;;;;;18.70;44.71;101702.44;5035981;28;20064;-47
2023/01/14 05:40:53;;;;;;;8.90;5.30;;;;;;;18.70;44.82;101701.59;5035945;28;20079;-49
2023/01/14 05:46:09;;;;;;;8.20;5.88;;;;;;;18.70;44.78;101682.81;5036191;28;20060;-48
2023/01/14 05:48:36;;;;;;;7.30;5.43;;;;;;;18.70;44.91;101685.50;5036095;28;20056;-53
2023/01/14 05:51:05;;;;;;;8.48;5.55;;;;;;;18.69;44.74;101679.25;5035924;28;20518;-51
2023/01/14 05:53:33;;;;;;;6.53;4.88;;;;;;;18.69;44.81;101681.94;5037801;28;20052;-50
2023/01/14 05:56:00;;;;;;;7.28;5.00;;;;;;;18.69;44.72;101687.28;5055506;28;20037;-51
2023/01/14 05:58:27;;;;;;;7.82;5.82;;;;;;;18.69;44.81;101684.63;5055958;28;20047;-51
2023/01/14 06:06:36;;;;;;;8.00;5.82;;;;;;;18.67;44.74;101717.84;5055364;28;20048;-49
2023/01/14 06:09:09;;;;;;;9.85;5.75;;;;;;;18.67;44.70;101721.41;5055376;28;20049;-50
2023/01/14 06:11:45;;;;;;;6.18;4.88;;;;;;;18.67;44.77;101729.44;5055256;28;20053;-47
2023/01/14 06:14:13;;;;;;;6.50;5.15;;;;;;;18.66;44.67;101726.88;5055775;28;20049;-48
2023/01/14 06:16:40;;;;;;;7.20;5.50;;;;;;;18.66;44.65;101711.63;5055105;28;20044;-47
2023/01/14 06:19:13;;;;;;;6.45;5.30;;;;;;;18.66;44.74;101727.72;5055323;28;20052;-52
2023/01/14 06:21:41;;;;;;;6.38;4.93;;;;;;;18.67;44.65;101728.59;5054913;28;20041;-52
2023/01/14 06:24:09;;;;;;;6.32;5.35;;;;;;;18.67;44.55;101728.59;5055353;28;20215;-52
2023/01/14 06:26:37;;;;;;;7.15;5.35;;;;;;;18.67;44.52;101715.19;5043662;28;20037;-54
2023/01/14 06:29:11;;;;;;;5.90;5.30;;;;;;;18.67;44.66;101720.53;5052024;28;20049;-46
2023/01/14 06:31:40;;;;;;;7.60;5.22;;;;;;;18.66;44.44;101721.50;5055010;28;20486;-47
2023/01/14 06:34:07;;;;;;;6.60;5.13;;;;;;;18.65;44.50;101720.66;5053851;28;20060;-49
2023/01/14 06:36:36;;;;;;;9.60;5.50;;;;;;;18.65;44.46;101723.34;5054530;28;20060;-47
2023/01/14 06:39:04;;;;;;;9.13;5.28;;;;;;;18.65;44.33;101736.75;5054726;28;20668;-49
2023/01/14 06:41:31;;;;;;;6.40;4.72;;;;;;;18.66;44.43;101749.19;5054761;28;20383;-47
2023/01/14 06:43:59;;;;;;;7.20;5.40;;;;;;;18.66;44.35;101740.28;5054429;28;20053;-48
2023/01/14 06:46:26;;;;;;;8.35;4.95;;;;;;;18.65;44.48;101744.78;5054768;28;20041;-47
2023/01/14 06:48:54;;;;;;;7.95;4.80;;;;;;;18.65;44.52;101758.22;5054797;28;20052;-52
2023/01/14 06:51:21;;;;;;;6.45;5.60;;;;;;;18.64;44.43;101761.84;5054398;28;20056;-52
2023/01/14 06:53:48;;;;;;;7.45;5.10;;;;;;;18.64;44.52;101772.59;5054350;28;20056;-51
2023/01/14 06:56:17;;;;;;;6.55;5.18;;;;;;;18.64;44.45;101777.94;5054710;28;20044;-51
2023/01/14 06:58:48;;;;;;;6.80;5.28;;;;;;;18.64;44.35;101779.78;5054464;28;20045;-52
2023/01/14 07:01:17;;;;;;;5.85;5.00;;;;;;;18.65;44.25;101779.66;5054168;28;20428;-51
2023/01/14 07:03:44;;;;;;;6.15;5.05;;;;;;;18.64;44.26;101777.09;5054083;28;20037;-51
2023/01/14 07:06:11;;;;;;;6.00;5.00;;;;;;;18.64;44.25;101772.59;5054234;28;20048;-51
2023/01/14 07:08:39;;;;;;;5.55;4.82;;;;;;;18.64;44.36;101783.31;5054050;28;20044;-49
2023/01/14 07:11:06;;;;;;;6.28;5.22;;;;;;;18.64;44.39;101788.69;5054135;28;20048;-47
2023/01/14 07:13:34;;;;;;;10.55;5.28;;;;;;;18.65;44.34;101789.53;5053175;28;20052;-49
2023/01/14 07:16:01;;;;;;;6.35;4.93;;;;;;;18.63;44.24;101786.94;5052753;28;20045;-52
2023/01/14 07:18:29;;;;;;;7.90;5.25;;;;;;;18.64;44.41;101794.03;5054386;28;20072;-54
2023/01/14 07:20:58;;;;;;;8.07;5.63;;;;;;;18.63;44.26;101792.31;5053672;28;20056;-52
2023/01/14 07:23:26;;;;;;;6.68;5.45;;;;;;;18.64;44.34;101790.50;5053443;28;20044;-51
2023/01/14 07:25:55;;;;;;;7.18;5.10;;;;;;;18.64;44.45;101793.19;5052693;28;20060;-52
2023/01/14 07:28:27;;;;;;;6.97;4.97;;;;;;;18.63;44.28;101792.31;5035528;28;20037;-51
2023/01/14 07:30:55;;;;;;;7.25;4.78;;;;;;;18.63;44.35;101796.81;5033819;28;20042;-50
2023/01/14 07:33:23;;;;;;;6.93;4.72;;;;;;;18.64;44.29;101793.19;5033803;28;20060;-51
2023/01/14 07:35:52;;;;;;;7.47;5.70;;;;;;;18.63;44.42;101794.97;5034065;28;20041;-51
2023/01/14 07:38:20;;;;;;;6.68;5.28;;;;;;;18.63;44.28;101794.13;5033989;28;20064;-50
2023/01/14 07:40:49;;;;;;;8.07;5.13;;;;;;;18.63;44.30;101796.81;5033803;28;20049;-51
2023/01/14 07:43:16;;;;;;;6.32;4.68;;;;;;;18.62;44.21;101790.59;5033691;28;20049;-49
2023/01/14 07:45:44;;;;;;;6.85;5.10;;;;;;;18.62;44.20;101795.09;5033015;28;20056;-50
2023/01/14 07:48:12;;;;;;;5.85;4.97;;;;;;;18.63;44.24;101799.50;5033376;28;20050;-50
2023/01/14 07:50:39;;;;;;;5.63;4.28;;;;;;;18.62;44.19;101805.81;5033616;28;20170;-48
2023/01/14 07:53:06;;;;;;;7.43;5.20;;;;;;;18.61;44.19;101810.34;5033410;28;20491;-49
2023/01/14 07:55:36;;;;;;;7.10;5.13;;;;;;;18.61;44.15;101810.34;5046966;28;20514;-48
2023/01/14 07:58:04;;;;;;;5.85;4.75;;;;;;;18.61;44.22;101813.03;5053861;28;20040;-47
2023/01/14 08:00:31;;;;;;;6.57;5.00;;;;;;;18.61;44.15;101820.22;5053222;28;20053;-47
2023/01/14 08:02:58;;;;;;;6.63;5.25;;;;;;;18.61;44.28;101826.44;5053272;28;20041;-46
2023/01/14 08:05:26;;;;;;;5.45;4.82;;;;;;;18.61;44.16;101829.09;5053480;28;20041;-51
2023/01/14 08:07:54;;;;;;;9.15;5.95;;;;;;;18.61;44.20;101828.25;5053209;28;20052;-49
2023/01/14 08:10:21;;;;;;;7.30;4.78;;;;;;;18.61;44.32;101833.63;5053346;28;20053;-48
2023/01/14 08:12:49;;;;;;;6.93;4.68;;;;;;;18.61;44.30;101841.66;5053100;28;20053;-47
2023/01/14 08:15:18;;;;;;;6.38;4.47;;;;;;;18.60;44.42;101856.91;5052112;28;20052;-50
2023/01/14 08:17:45;;;;;;;7.95;5.78;;;;;;;18.59;44.40;101855.16;5052641;28;20055;-49
2023/01/14 08:20:13;;;;;;;6.07;4.55;;;;;;;18.60;44.41;101845.31;5052792;28;20044;-49
2023/01/14 08:22:40;;;;;;;6.60;4.80;;;;;;;18.60;44.39;101854.22;5053180;28;20434;-47
2023/01/14 08:25:08;;;;;;;5.32;4.43;;;;;;;18.61;44.53;101844.34;5052303;28;20072;-47
2023/01/14 08:27:35;;;;;;;5.57;4.43;;;;;;;18.61;44.35;101858.63;5052458;28;20048;-51
2023/01/14 08:30:03;;;;;;;6.53;5.03;;;;;;;18.62;44.27;101859.47;5033022;28;20117;-50
2023/01/14 08:32:31;;;;;;;7.18;5.22;;;;;;;18.64;44.34;101876.34;5032772;28;20049;-51
2023/01/14 08:34:58;;;;;;;5.25;4.25;;;;;;;18.64;44.58;101876.34;5033003;28;20041;-47
2023/01/14 08:37:25;;;;;;;7.88;5.35;;;;;;;18.62;43.91;101873.72;5033246;28;20049;-47
2023/01/14 08:39:53;;;;;;;7.53;5.35;;;;;;;18.64;44.58;101884.38;5033126;28;20060;-51
2023/01/14 08:42:20;;;;;;;6.03;4.47;;;;;;;18.66;44.93;101882.44;5032638;28;20050;-54
2023/01/14 08:44:47;;;;;;;8.82;5.75;;;;;;;18.64;42.24;101895.09;5031849;28;20048;-57
2023/01/14 08:47:15;;;;;;;11.70;8.55;;;;;;;18.44;39.57;101899.94;5032965;28;20041;-50
2023/01/14 08:49:42;;;;;;;8.68;6.22;;;;;;;18.39;42.42;101906.56;5033001;28;20049;-50
2023/01/14 08:52:10;;;;;;;6.85;4.90;;;;;;;18.40;44.82;101914.50;5033063;28;20499;-50
2023/01/14 08:54:37;;;;;;;6.90;4.90;;;;;;;18.46;44.53;101906.06;5032726;28;20049;-50
2023/01/14 08:57:06;;;;;;;6.28;4.85;;;;;;;18.48;44.35;101906.84;5033584;28;20045;-56
2023/01/14 08:59:33;;;;;;;8.05;4.93;;;;;;;18.51;44.40;101906.66;5036839;28;20045;-47
2023/01/14 09:02:00;;;;;;;6.57;5.00;;;;;;;18.56;44.23;101911.69;5051289;28;20049;-47
2023/01/14 09:04:28;;;;;;;9.13;4.78;;;;;;;18.59;44.30;101916.84;5056615;28;20060;-48
2023/01/14 09:18:03;;;;;;;6.82;4.70;;;;;;;18.67;43.46;101898.41;5056436;28;20053;-48
2023/01/14 09:20:36;;;;;;;5.50;4.32;;;;;;;18.68;43.74;101905.53;5056027;28;20060;-48
2023/01/14 09:23:05;;;;;;;6.75;4.68;;;;;;;18.71;43.95;101909.84;5056552;28;20045;-48
2023/01/14 09:25:36;;;;;;;6.20;4.37;;;;;;;18.70;43.56;101903.63;5037494;28;20120;-50
2023/01/14 09:28:05;;;;;;;6.43;4.95;;;;;;;18.72;43.74;101914.25;5035900;28;20050;-52
2023/01/14 09:30:32;;;;;;;7.25;5.00;;;;;;;18.73;43.30;101924.88;5037471;28;20042;-52
2023/01/14 09:33:00;;;;;;;7.05;5.18;;;;;;;18.74;43.40;101923.91;5035659;28;20051;-53
2023/01/14 09:35:28;;;;;;;6.93;4.15;;;;;;;18.74;43.52;101923.91;5035832;28;20050;-52
2023/01/14 09:37:55;;;;;;;6.20;4.88;;;;;;;18.75;43.57;101922.94;5036167;28;20056;-52
2023/01/14 09:40:23;;;;;;;8.55;4.55;;;;;;;18.75;43.52;101925.63;5036114;28;20049;-49
2023/01/14 09:42:51;;;;;;;8.38;4.82;;;;;;;18.77;43.71;101923.72;5035625;28;20065;-47
2023/01/14 09:45:26;;;;;;;5.43;4.63;;;;;;;18.79;43.42;101915.56;5035775;28;20399;-47
2023/01/14 09:47:57;;;;;;;7.10;4.43;;;;;;;18.80;43.62;101919.09;5035803;28;20061;-50
2023/01/14 09:50:38;;;;;;;6.80;4.40;;;;;;;18.81;43.92;101919.00;5034871;28;20109;-48
2023/01/14 09:53:26;;;;;;;6.80;4.38;;;;;;;18.82;43.83;101927.91;5035560;28;20053;-50
2023/01/14 09:56:05;;;;;;;5.63;4.30;;;;;;;18.82;43.53;101942.19;5042360;28;20060;-47
2023/01/14 09:58:39;;;;;;;5.38;4.20;;;;;;;18.83;43.78;101937.69;5056092;28;20060;-55
2023/01/14 10:01:34;;;;;;;9.63;4.78;;;;;;;18.83;43.96;101938.53;5055441;28;20056;-52
2023/01/14 10:04:04;;;;;;;7.50;5.90;;;;;;;18.83;43.51;101937.69;5055115;28;20060;-54
2023/01/14 10:06:34;;;;;;;7.55;5.43;;;;;;;18.82;43.55;101942.19;5055459;28;20401;-54
2023/01/14 10:09:11;;;;;;;10.18;6.53;;;;;;;18.81;43.19;101945.84;5054056;28;20064;-54
2023/01/14 10:11:42;;;;;;;9.00;6.05;;;;;;;18.82;43.10;101930.59;5055079;28;20045;-53
2023/01/14 10:14:32;;;;;;;10.43;5.38;;;;;;;18.82;43.60;101930.59;5054952;28;20052;-54
2023/01/14 10:17:07;;;;;;;7.20;5.22;;;;;;;18.82;43.84;101915.34;5055388;28;20409;-51
2023/01/14 10:19:46;;;;;;;11.40;5.82;;;;;;;18.83;43.75;101914.38;5055288;28;20052;-55
2023/01/14 10:22:40;;;;;;;8.65;5.28;;;;;;;18.85;43.79;101922.34;5055008;28;20056;-55
2023/01/14 10:25:19;;;;;;;8.80;4.65;;;;;;;18.84;44.01;101913.44;5054885;28;20049;-54
2023/01/14 10:27:59;;;;;;;7.57;5.40;;;;;;;18.85;43.94;101917.00;5055203;28;20048;-53
2023/01/14 10:30:33;;;;;;;10.55;5.03;;;;;;;18.87;43.87;101910.53;5046677;28;20037;-55
2023/01/14 10:33:05;;;;;;;7.65;5.20;;;;;;;18.87;43.69;101905.16;5034370;28;20045;-53
2023/01/14 10:35:38;;;;;;;8.00;5.43;;;;;;;18.88;43.86;101897.97;5034786;28;20053;-54
2023/01/14 10:38:06;;;;;;;10.65;5.07;;;;;;;18.91;43.66;101889.72;5034732;28;20049;-55
2023/01/14 10:40:34;;;;;;;7.15;5.00;;;;;;;18.99;43.92;101896.28;5034061;28;20045;-56
2023/01/14 10:43:03;;;;;;;7.57;5.05;;;;;;;19.06;43.84;101895.91;5034469;28;20058;-50
2023/01/14 10:45:31;;;;;;;7.88;4.63;;;;;;;19.08;43.92;101892.16;5034484;28;20072;-52
2023/01/14 10:48:04;;;;;;;8.88;5.20;;;;;;;19.09;43.94;101890.31;5034859;28;20040;-51
2023/01/14 10:50:32;;;;;;;8.00;5.63;;;;;;;19.08;43.64;101899.31;5034834;28;20053;-51
2023/01/14 10:53:20;;;;;;;9.50;5.38;;;;;;;19.05;43.71;101895.03;5034393;28;20069;-52
2023/01/14 10:55:53;;;;;;;6.70;5.35;;;;;;;19.03;43.83;101881.72;5034351;28;20112;-50
2023/01/14 10:58:26;;;;;;;;;;;;;;;19.02;43.88;101879.13;5034670;28;20049;-56
2023/01/14 11:01:10;;;;;;;9.30;5.05;;;;;;;19.06;43.79;101874.44;5040342;28;19944;-56
2023/01/14 11:03:42;;;;;;;7.68;5.05;;;;;;;19.04;44.07;101861.13;5054113;28;20056;-56
2023/01/14 11:06:12;;;;;;;17.83;13.05;;;;;;;18.99;42.70;101864.09;5054189;28;20041;-57
2023/01/14 11:08:51;;;;;;;19.85;17.05;;;;;;;18.81;42.29;101860.00;5054365;28;20041;-54
2023/01/14 11:11:24;;;;;;;21.88;17.50;;;;;;;18.65;42.15;101861.94;5054027;28;20478;-54
2023/01/14 11:13:53;;;;;;;;;;;;;;;18.46;42.28;101856.94;5054406;28;20045;-55
2023/01/14 11:16:27;;;;;;;20.98;14.15;;;;;;;18.26;43.44;101844.84;5054289;28;19987;-56
2023/01/14 11:19:20;;;;;;;20.45;16.20;;;;;;;18.21;43.07;101838.94;5054029;28;20045;-57
2023/01/14 11:21:51;;;;;;;17.55;13.63;;;;;;;18.27;43.55;101825.09;5053649;28;20055;-57
2023/01/14 11:24:35;;;;;;;16.92;12.38;;;;;;;18.33;44.98;101813.13;5054173;28;20045;-57
2023/01/14 11:27:19;;;;;;;14.75;12.40;;;;;;;18.37;45.15;101806.63;5054011;28;20045;-52
2023/01/14 11:29:55;;;;;;;13.25;11.38;;;;;;;18.42;44.30;101805.34;5054004;28;20045;-52
2023/01/14 11:32:33;;;;;;;14.90;12.07;;;;;;;18.46;44.19;101795.28;5034817;28;20045;-52
2023/01/14 11:35:02;;;;;;;14.07;11.85;;;;;;;18.48;43.85;101780.81;5033542;28;20049;-51
2023/01/14 11:37:38;;;;;;;14.13;11.82;;;;;;;18.51;44.12;101782.41;5042262;28;20055;-57
2023/01/14 11:40:06;;;;;;;14.85;10.95;;;;;;;18.54;44.06;101766.97;5053658;28;20052;-57
2023/01/14 11:42:40;;;;;;;12.48;9.90;;;;;;;18.56;44.29;101758.84;5053273;28;20060;-55
2023/01/14 11:45:10;;;;;;;12.90;10.63;;;;;;;18.56;43.64;101753.47;5053620;28;20053;-55
2023/01/14 11:47:55;;;;;;;14.98;11.30;;;;;;;18.55;43.80;101751.75;5052950;28;20407;-56
2023/01/14 11:50:26;;;;;;;11.65;10.45;;;;;;;18.54;43.34;101752.72;5053559;28;20056;-52
2023/01/14 11:53:14;;;;;;;15.43;11.45;;;;;;;18.46;42.98;101753.22;5053576;28;20368;-55
2023/01/14 11:55:44;;;;;;;13.02;10.63;;;;;;;18.43;43.07;101757.94;5052938;28;20376;-56
2023/01/14 11:58:14;;;;;;;11.05;8.82;;;;;;;18.45;44.22;101754.19;5053749;28;20048;-49
2023/01/14 12:00:49;;;;;;;10.88;7.82;;;;;;;18.48;44.54;101754.00;5053443;28;20037;-53
2023/01/14 12:03:55;;;;;;;9.57;7.18;;;;;;;18.53;44.65;101737.59;5053232;28;20072;-51
2023/01/14 12:06:28;;;;;;;12.45;7.55;;;;;;;18.57;44.54;101716.78;5052411;28;20090;-51
2023/01/14 12:09:01;;;;;;;9.70;6.70;;;;;;;18.60;44.63;101711.22;5053249;28;20110;-56
2023/01/14 12:11:32;;;;;;;;;;;;;;;18.62;44.64;101715.50;5053970;28;20049;-55